Time;durP1;ratioP1;P1;durP2;ratioP2;P2;SDS_P1;SDS_P2;PMS_P1;PMS_P2;Temp;Humidity;BMP_temperature;BMP_pressure;BME280_temperature;BME280_humidity;BME280_pressure;Samples;Min_cycle;Max_cycle;Signal;HPM_P1;HPM_P2
2023/03/06 00:00:23;;;;;;;6.45;2.20;;;;;;;3.71;100.00;100075.66;4928153;28;19927;-84
2023/03/06 00:02:50;;;;;;;7.07;1.70;;;;;;;3.73;100.00;100077.31;4925640;29;20051;-84
2023/03/06 00:05:18;;;;;;;9.85;2.40;;;;;;;3.82;100.00;100085.78;4931508;29;20051;-84
2023/03/06 00:07:44;;;;;;;8.10;3.22;;;;;;;3.58;100.00;100051.75;4932219;29;20109;-84
2023/03/06 00:10:17;;;;;;;10.23;2.38;;;;;;;3.92;100.00;100089.91;4929954;29;20125;-84
2023/03/06 00:12:44;;;;;;;7.28;2.40;;;;;;;3.86;100.00;100080.53;4929114;28;20113;-84
2023/03/06 00:15:12;;;;;;;7.68;2.17;;;;;;;3.64;100.00;100040.41;4933579;28;20055;-85
2023/03/06 00:17:39;;;;;;;6.85;1.92;;;;;;;3.69;100.00;100052.38;4932541;29;20067;-85
2023/03/06 00:20:08;;;;;;;9.68;2.47;;;;;;;3.68;100.00;100052.41;4931707;28;20055;-84
2023/03/06 00:22:35;;;;;;;5.55;2.10;;;;;;;3.66;100.00;100054.16;4931709;28;20101;-85
2023/03/06 00:25:03;;;;;;;7.70;2.00;;;;;;;3.40;100.00;100004.63;4932112;28;20056;-85
2023/03/06 00:27:31;;;;;;;4.50;1.85;;;;;;;3.40;100.00;99977.91;4938951;29;20484;-85
2023/03/06 00:29:59;;;;;;;6.32;1.90;;;;;;;3.76;100.00;100030.66;4935065;29;20051;-84
2023/03/06 00:32:27;;;;;;;6.07;1.80;;;;;;;3.76;100.00;100022.03;4932191;28;20051;-84
2023/03/06 00:34:55;;;;;;;7.22;3.25;;;;;;;3.81;100.00;100009.84;4939191;29;20409;-84
2023/03/06 00:37:23;;;;;;;6.75;2.17;;;;;;;3.93;100.00;100011.28;4937440;28;20429;-85
2023/03/06 00:39:50;;;;;;;6.97;2.63;;;;;;;3.88;100.00;99997.59;4931210;29;20117;-85
2023/03/06 00:42:18;;;;;;;6.47;2.10;;;;;;;3.53;100.00;99962.97;4924416;29;20402;-85
2023/03/06 00:44:45;;;;;;;9.55;2.40;;;;;;;3.47;100.00;99968.25;4931986;29;20106;-84
2023/03/06 00:47:15;;;;;;;11.35;2.17;;;;;;;3.56;100.00;99945.63;4932474;29;20051;-84
2023/03/06 00:49:45;;;;;;;9.73;2.40;;;;;;;3.64;100.00;99962.75;4935028;29;20060;-84
2023/03/06 00:52:12;;;;;;;7.10;2.03;;;;;;;3.52;100.00;99940.53;4926497;28;20059;-85
2023/03/06 00:54:39;;;;;;;5.05;1.83;;;;;;;3.41;100.00;99902.81;4944895;29;20054;-84
2023/03/06 00:57:07;;;;;;;7.00;2.53;;;;;;;3.65;100.00;99943.72;4933244;28;20441;-84
2023/03/06 00:59:34;;;;;;;3.67;1.63;;;;;;;3.53;100.00;99934.50;4925779;29;20051;-83
2023/03/06 01:02:01;;;;;;;7.43;2.00;;;;;;;3.75;100.00;99940.91;4924593;29;20054;-84
2023/03/06 01:04:28;;;;;;;7.22;2.15;;;;;;;3.41;100.00;99905.38;4932298;28;20565;-84
2023/03/06 01:06:55;;;;;;;7.80;2.38;;;;;;;3.69;100.00;99935.03;4931939;29;20576;-84
2023/03/06 01:09:23;;;;;;;9.07;2.67;;;;;;;3.64;100.00;99919.56;4923686;28;20066;-84
2023/03/06 01:11:49;;;;;;;6.90;2.30;;;;;;;3.70;100.00;99914.28;4929271;29;20047;-84
2023/03/06 01:14:18;;;;;;;7.53;2.55;;;;;;;3.43;100.00;99892.41;4946153;28;20441;-84
2023/03/06 01:16:46;;;;;;;7.90;2.45;;;;;;;3.55;100.00;99894.75;4933527;29;20134;-83
2023/03/06 01:19:13;;;;;;;6.07;2.63;;;;;;;3.61;100.00;99917.03;4943455;28;20486;-84
2023/03/06 01:21:40;;;;;;;7.70;2.50;;;;;;;3.62;100.00;99900.63;4930360;28;20047;-84
2023/03/06 01:24:06;;;;;;;7.25;2.30;;;;;;;3.56;100.00;99883.50;4930599;29;20070;-84
2023/03/06 01:26:33;;;;;;;6.80;2.53;;;;;;;3.63;100.00;99891.13;4931418;29;20048;-84
2023/03/06 01:29:01;;;;;;;7.32;2.70;;;;;;;3.64;100.00;99880.75;4932373;28;20062;-84
2023/03/06 01:31:27;;;;;;;8.55;3.00;;;;;;;3.17;100.00;99823.13;4924599;29;20051;-84
2023/03/06 01:33:54;;;;;;;8.60;2.58;;;;;;;3.59;100.00;99859.28;4939601;29;20097;-83
2023/03/06 01:36:21;;;;;;;7.82;2.85;;;;;;;3.55;100.00;99853.31;4930953;29;20052;-84
2023/03/06 01:38:48;;;;;;;7.15;2.40;;;;;;;3.63;100.00;99867.81;4931923;29;20055;-84
2023/03/06 01:41:15;;;;;;;7.13;2.20;;;;;;;3.30;100.00;99792.69;4925412;29;20100;-83
2023/03/06 01:43:44;;;;;;;7.82;3.05;;;;;;;3.62;100.00;99828.16;4941016;28;20452;-84
2023/03/06 01:46:33;;;;;;;6.95;2.10;;;;;;;3.83;100.00;99851.84;4930695;29;20086;-83
2023/03/06 01:49:03;;;;;;;6.78;2.70;;;;;;;3.83;100.00;99842.31;4932451;29;20051;-84
2023/03/06 01:51:53;;;;;;;6.97;2.40;;;;;;;3.69;100.00;99829.72;4928542;29;20051;-83
2023/03/06 01:54:26;;;;;;;6.43;2.17;;;;;;;3.63;100.00;99823.81;4930227;29;20498;-84
2023/03/06 01:57:01;;;;;;;7.07;2.17;;;;;;;3.48;100.00;99784.47;4930976;29;20052;-83
2023/03/06 01:59:28;;;;;;;5.15;1.90;;;;;;;3.79;100.00;99802.72;4930473;29;20055;-83
2023/03/06 02:01:57;;;;;;;6.78;2.53;;;;;;;3.52;100.00;99764.53;4922053;28;20444;-84
2023/03/06 02:04:24;;;;;;;5.40;2.30;;;;;;;3.69;100.00;99788.28;4931039;29;20044;-84
2023/03/06 02:06:51;;;;;;;4.88;1.98;;;;;;;3.78;100.00;99789.81;4930597;28;20473;-83
2023/03/06 02:09:18;;;;;;;6.50;1.85;;;;;;;3.66;100.00;99770.22;4930664;29;20056;-83
2023/03/06 02:11:45;;;;;;;5.93;2.10;;;;;;;3.48;100.00;99762.94;4917564;29;20051;-83
2023/03/06 02:14:14;;;;;;;4.55;1.70;;;;;;;3.52;100.00;99757.63;4930181;29;20712;-83
2023/03/06 02:16:42;;;;;;;7.15;2.25;;;;;;;3.60;100.00;99747.94;4941419;29;20520;-84
2023/03/06 02:19:27;;;;;;;7.25;1.90;;;;;;;3.78;100.00;99769.94;4943297;29;20405;-84
2023/03/06 02:21:54;;;;;;;4.05;1.55;;;;;;;3.53;100.00;99727.44;4934872;29;20060;-84
2023/03/06 02:24:31;;;;;;;4.93;1.80;;;;;;;3.63;100.00;99718.56;4929918;29;20051;-84
2023/03/06 02:27:00;;;;;;;5.15;1.80;;;;;;;3.44;100.00;99710.41;4928732;29;20063;-84
2023/03/06 02:29:28;;;;;;;4.80;1.55;;;;;;;3.88;100.00;99746.38;4930026;28;20059;-84
2023/03/06 02:31:55;;;;;;;5.30;2.10;;;;;;;3.54;100.00;99691.16;4933012;28;20456;-84
2023/03/06 02:34:22;;;;;;;3.42;1.52;;;;;;;3.89;100.00;99729.97;4946755;28;20074;-84
2023/03/06 02:37:01;;;;;;;5.10;1.73;;;;;;;3.85;100.00;99725.75;4934893;28;20051;-84
2023/03/06 02:39:31;;;;;;;3.65;1.77;;;;;;;3.67;100.00;99694.28;4932024;29;20759;-84
2023/03/06 02:41:58;;;;;;;2.70;1.55;;;;;;;3.73;100.00;99690.69;4930690;29;20059;-84
2023/03/06 02:44:26;;;;;;;4.32;1.75;;;;;;;3.62;100.00;99683.19;4931031;29;20067;-84
2023/03/06 02:46:53;;;;;;;4.95;1.95;;;;;;;3.49;100.00;99651.59;4938220;29;20062;-85
2023/03/06 02:49:20;;;;;;;4.85;1.63;;;;;;;3.36;100.00;99634.69;4935932;29;20052;-84
2023/03/06 02:51:46;;;;;;;4.78;1.70;;;;;;;3.60;100.00;99639.22;4924458;28;20117;-84
2023/03/06 02:54:13;;;;;;;2.97;1.33;;;;;;;3.49;100.00;99620.56;4928856;28;20052;-85
2023/03/06 02:56:40;;;;;;;3.67;1.50;;;;;;;3.64;100.00;99646.91;4955532;28;20044;-84
2023/03/06 02:59:07;;;;;;;2.28;1.20;;;;;;;3.88;100.00;99666.09;4930319;29;20055;-84
2023/03/06 03:01:33;;;;;;;3.10;1.40;;;;;;;3.54;100.00;99612.66;4931364;28;20486;-84
2023/03/06 03:04:00;;;;;;;2.40;1.30;;;;;;;3.72;100.00;99642.38;4941285;28;20048;-85
2023/03/06 03:06:27;;;;;;;4.05;1.73;;;;;;;3.83;100.00;99645.53;4934277;29;20632;-84
2023/03/06 03:08:54;;;;;;;2.40;1.30;;;;;;;3.76;100.00;99613.78;4929511;28;20059;-84
2023/03/06 03:11:20;;;;;;;2.17;1.23;;;;;;;4.05;100.00;99643.19;4932116;28;20494;-85
2023/03/06 03:13:47;;;;;;;1.98;1.25;;;;;;;4.03;100.00;99632.00;4932575;29;20048;-85
2023/03/06 03:16:14;;;;;;;2.58;1.20;;;;;;;4.06;100.00;99637.13;4933115;29;20052;-84
2023/03/06 03:18:46;;;;;;;2.28;1.23;;;;;;;3.82;100.00;99588.59;4973403;28;20444;-85
2023/03/06 03:21:14;;;;;;;2.67;1.30;;;;;;;4.07;100.00;99612.06;4931785;29;20064;-85
2023/03/06 03:23:41;;;;;;;3.83;1.40;;;;;;;4.19;100.00;99635.00;4933706;28;20048;-85
2023/03/06 03:26:17;;;;;;;2.72;1.40;;;;;;;4.21;100.00;99624.63;4941056;29;20055;-84
2023/03/06 03:28:44;;;;;;;1.73;1.20;;;;;;;3.94;100.00;99568.38;4940070;29;20113;-85
2023/03/06 03:31:11;;;;;;;2.10;1.20;;;;;;;3.80;100.00;99550.63;4925452;29;20048;-85
2023/03/06 03:33:39;;;;;;;2.15;1.10;;;;;;;4.17;100.00;99587.59;4932811;29;20134;-85
2023/03/06 03:36:07;;;;;;;1.77;1.10;;;;;;;4.14;100.00;99603.22;4932666;28;20055;-85
2023/03/06 03:38:34;;;;;;;1.52;1.13;;;;;;;4.18;100.00;99594.47;4939493;29;20486;-86
2023/03/06 03:41:02;;;;;;;1.80;1.10;;;;;;;4.21;100.00;99594.34;4933377;29;20067;-85
2023/03/06 03:43:29;;;;;;;2.00;1.13;;;;;;;4.10;100.00;99576.53;4932414;28;20047;-84
2023/03/06 03:45:56;;;;;;;1.55;1.05;;;;;;;3.93;100.00;99552.88;4933808;29;20055;-83
2023/03/06 03:48:23;;;;;;;1.90;1.05;;;;;;;3.75;100.00;99523.19;4941996;29;20497;-84
2023/03/06 03:50:50;;;;;;;1.98;1.10;;;;;;;3.71;100.00;99512.06;4931513;29;20051;-84
2023/03/06 03:53:16;;;;;;;1.10;0.90;;;;;;;3.77;100.00;99532.63;4939626;29;20520;-84
2023/03/06 03:55:46;;;;;;;1.50;1.10;;;;;;;4.09;100.00;99563.63;4934415;29;20386;-84
2023/03/06 03:58:13;;;;;;;1.58;0.90;;;;;;;3.61;100.00;99495.09;4932760;29;20055;-84
2023/03/06 04:00:39;;;;;;;1.10;1.00;;;;;;;3.95;100.00;99541.59;4929182;28;20063;-84
2023/03/06 04:03:06;;;;;;;1.67;1.13;;;;;;;3.71;100.00;99490.53;4933001;29;20742;-84
2023/03/06 04:05:33;;;;;;;1.67;1.08;;;;;;;3.72;100.00;99490.50;4933053;29;20448;-84
2023/03/06 04:08:01;;;;;;;1.42;0.93;;;;;;;3.96;100.00;99516.53;4932713;28;20051;-84
2023/03/06 04:10:28;;;;;;;1.95;1.15;;;;;;;3.78;100.00;99489.44;4927086;29;20052;-84
2023/03/06 04:12:56;;;;;;;1.33;1.10;;;;;;;4.00;100.00;99502.59;4933182;29;20047;-84
2023/03/06 04:15:22;;;;;;;3.00;1.15;;;;;;;3.90;100.00;99501.19;4931091;29;20051;-84
2023/03/06 04:17:49;;;;;;;1.83;1.10;;;;;;;3.78;100.00;99472.16;4933405;29;20058;-84
2023/03/06 04:20:16;;;;;;;1.90;1.17;;;;;;;3.91;100.00;99488.22;4931050;29;20505;-84
2023/03/06 04:22:43;;;;;;;2.08;1.15;;;;;;;3.80;100.00;99472.97;4931860;29;20109;-84
2023/03/06 04:25:09;;;;;;;1.63;1.10;;;;;;;3.93;100.00;99477.78;4933795;29;20414;-83
2023/03/06 04:27:36;;;;;;;2.17;1.13;;;;;;;3.88;100.00;99464.13;4931424;28;20052;-83
2023/03/06 04:30:05;;;;;;;1.35;1.00;;;;;;;4.16;100.00;99506.44;4930262;29;20055;-84
2023/03/06 04:32:32;;;;;;;2.22;1.25;;;;;;;4.03;100.00;99470.59;4933461;28;20051;-82
2023/03/06 04:34:59;;;;;;;1.25;1.00;;;;;;;3.99;100.00;99455.13;4931766;28;20550;-83
2023/03/06 04:37:25;;;;;;;1.30;1.00;;;;;;;3.79;100.00;99422.09;4931916;29;20063;-83
2023/03/06 04:39:52;;;;;;;1.45;1.10;;;;;;;3.93;100.00;99436.34;4932276;29;20055;-83
2023/03/06 04:42:19;;;;;;;1.42;1.10;;;;;;;3.88;100.00;99428.72;4928457;29;20055;-83
2023/03/06 04:44:46;;;;;;;2.33;1.20;;;;;;;3.76;100.00;99401.47;4932749;29;20051;-84
2023/03/06 04:47:13;;;;;;;1.75;1.10;;;;;;;3.74;100.00;99402.41;4933081;29;20099;-83
2023/03/06 04:49:40;;;;;;;1.30;1.00;;;;;;;3.84;100.00;99411.56;4946174;29;20063;-83
2023/03/06 04:52:06;;;;;;;2.42;1.08;;;;;;;4.02;100.00;99440.38;4923352;29;20048;-83
2023/03/06 04:54:33;;;;;;;1.15;0.98;;;;;;;3.66;100.00;99404.38;4931356;29;20054;-83
2023/03/06 04:57:00;;;;;;;1.48;1.00;;;;;;;3.82;100.00;99397.84;4931190;29;20058;-83
2023/03/06 04:59:26;;;;;;;1.33;1.05;;;;;;;3.91;100.00;99402.75;4932019;28;20055;-83
2023/03/06 05:01:53;;;;;;;1.20;1.00;;;;;;;3.88;100.00;99397.66;4930636;29;20052;-83
2023/03/06 05:04:20;;;;;;;1.45;1.00;;;;;;;3.77;100.00;99397.13;4932294;29;20106;-83
2023/03/06 05:06:46;;;;;;;1.65;1.10;;;;;;;3.89;100.00;99416.63;4932340;28;20409;-83
2023/03/06 05:09:13;;;;;;;1.20;0.93;;;;;;;3.79;100.00;99395.38;4932633;29;20117;-83
2023/03/06 05:11:40;;;;;;;1.23;0.95;;;;;;;3.72;100.00;99375.72;4930200;28;20055;-83
2023/03/06 05:14:06;;;;;;;2.00;1.10;;;;;;;3.77;100.00;99385.06;4932270;29;20040;-84
2023/03/06 05:16:33;;;;;;;1.70;1.10;;;;;;;3.90;100.00;99416.56;4931178;29;20460;-84
2023/03/06 05:19:00;;;;;;;2.92;1.20;;;;;;;3.64;100.00;99360.44;4930164;29;20067;-83
2023/03/06 05:21:27;;;;;;;1.10;1.00;;;;;;;3.53;100.00;99352.16;4935247;28;20055;-84
2023/03/06 05:23:53;;;;;;;1.65;1.10;;;;;;;3.86;100.00;99396.88;4935617;28;20044;-83
2023/03/06 05:26:20;;;;;;;1.17;1.00;;;;;;;3.61;100.00;99361.38;4933101;28;20059;-83
2023/03/06 05:28:47;;;;;;;1.55;1.02;;;;;;;3.92;100.00;99413.94;4945064;28;20445;-83
2023/03/06 05:31:13;;;;;;;1.50;1.02;;;;;;;3.68;100.00;99359.44;4928134;28;20055;-83
2023/03/06 05:33:40;;;;;;;1.95;1.20;;;;;;;3.79;100.00;99400.53;4952654;28;20148;-83
2023/03/06 05:36:08;;;;;;;1.75;1.10;;;;;;;3.66;100.00;99386.28;4962726;28;20055;-83
2023/03/06 05:38:35;;;;;;;1.25;1.05;;;;;;;3.52;100.00;99366.81;4917957;28;20066;-83
2023/03/06 05:41:02;;;;;;;1.55;1.10;;;;;;;3.56;100.00;99380.50;4930990;29;20051;-83
2023/03/06 05:43:29;;;;;;;1.77;1.13;;;;;;;3.43;100.00;99343.81;4930610;28;20106;-83
2023/03/06 05:46:01;;;;;;;1.10;0.95;;;;;;;3.75;100.00;99394.63;4930672;29;20058;-83
2023/03/06 05:48:28;;;;;;;1.50;1.10;;;;;;;3.49;100.00;99345.38;4930604;29;20052;-83
2023/03/06 05:50:56;;;;;;;1.30;1.10;;;;;;;3.62;100.00;99385.50;4928209;28;20047;-84
2023/03/06 05:53:23;;;;;;;1.67;1.00;;;;;;;3.61;100.00;99373.44;4927240;29;20129;-84
2023/03/06 05:56:03;;;;;;;1.52;1.13;;;;;;;3.51;100.00;99353.94;4931295;29;20055;-84
2023/03/06 05:58:31;;;;;;;1.45;1.00;;;;;;;3.71;100.00;99386.97;4931548;29;20440;-83
2023/03/06 06:00:58;;;;;;;1.65;1.10;;;;;;;3.60;100.00;99374.38;4930252;29;20071;-84
2023/03/06 06:03:25;;;;;;;1.63;1.00;;;;;;;3.51;100.00;99365.13;4930984;29;20052;-83
2023/03/06 06:05:52;;;;;;;1.35;1.00;;;;;;;3.52;100.00;99366.81;4930644;28;20079;-83
2023/03/06 06:08:19;;;;;;;1.98;1.05;;;;;;;3.19;100.00;99325.56;4935386;29;20056;-83
2023/03/06 06:10:46;;;;;;;2.10;1.10;;;;;;;3.34;100.00;99333.75;4926496;28;20058;-85
2023/03/06 06:13:13;;;;;;;1.10;1.00;;;;;;;3.45;100.00;99365.31;4935203;28;20055;-85
2023/03/06 06:15:40;;;;;;;1.30;0.95;;;;;;;3.42;100.00;99355.06;4930087;29;20048;-84
2023/03/06 06:18:06;;;;;;;2.47;1.10;;;;;;;3.26;100.00;99321.06;4925589;29;20047;-85
2023/03/06 06:20:35;;;;;;;1.50;1.00;;;;;;;3.17;100.00;99298.03;4928481;28;20102;-84
2023/03/06 06:23:02;;;;;;;1.20;1.02;;;;;;;3.41;100.00;99335.25;4929080;29;20405;-85
2023/03/06 06:25:28;;;;;;;1.58;1.00;;;;;;;3.46;100.00;99342.91;4935900;28;20054;-84
2023/03/06 06:27:56;;;;;;;1.40;1.00;;;;;;;3.28;100.00;99295.16;4936491;28;20116;-84
2023/03/06 06:30:23;;;;;;;1.30;1.00;;;;;;;3.35;100.00;99309.59;4938021;28;20496;-84
2023/03/06 06:32:50;;;;;;;1.10;0.90;;;;;;;3.55;100.00;99350.38;4923940;29;20055;-84
2023/03/06 06:35:16;;;;;;;1.60;1.00;;;;;;;3.66;100.00;99342.25;4936101;28;20043;-84
2023/03/06 06:37:43;;;;;;;1.52;1.10;;;;;;;3.48;100.00;99310.88;4945315;28;20052;-84
2023/03/06 06:40:10;;;;;;;2.22;1.20;;;;;;;3.50;100.00;99340.16;4942943;29;20051;-85
2023/03/06 06:42:37;;;;;;;1.40;1.02;;;;;;;3.25;100.00;99295.25;4944839;28;20058;-83
2023/03/06 06:45:07;;;;;;;3.75;1.10;;;;;;;3.54;100.00;99338.31;4945288;28;20085;-83
2023/03/06 06:47:37;;;;;;;1.83;1.00;;;;;;;3.34;100.00;99305.28;4932796;28;20504;-84
2023/03/06 06:50:05;;;;;;;2.08;1.00;;;;;;;3.54;100.00;99333.13;4936295;29;20401;-84
2023/03/06 06:52:32;;;;;;;2.80;1.10;;;;;;;3.13;100.00;99299.88;4942203;29;20051;-84
2023/03/06 06:54:58;;;;;;;1.65;1.10;;;;;;;3.36;100.00;99322.44;4947659;28;20054;-85
2023/03/06 06:57:25;;;;;;;1.30;1.00;;;;;;;3.13;100.00;99276.59;4941168;29;20048;-84
2023/03/06 06:59:52;;;;;;;1.40;1.02;;;;;;;3.55;100.00;99350.38;4940415;28;20052;-84
2023/03/06 07:02:21;;;;;;;1.10;0.95;;;;;;;3.36;100.00;99322.44;4947544;29;20058;-84
2023/03/06 07:04:48;;;;;;;1.77;1.10;;;;;;;3.28;100.00;99308.91;4945851;28;20051;-85
2023/03/06 07:07:32;;;;;;;2.40;1.40;;;;;;;3.15;100.00;99300.69;4928780;28;20056;-84
2023/03/06 07:09:59;;;;;;;3.10;1.00;;;;;;;3.36;100.00;99324.19;4930823;28;20489;-84
2023/03/06 07:12:26;;;;;;;1.40;1.02;;;;;;;3.25;100.00;99298.66;4930317;29;20048;-86
2023/03/06 07:14:52;;;;;;;1.20;1.00;;;;;;;3.20;100.00;99297.94;4926848;28;20044;-86
2023/03/06 07:17:19;;;;;;;1.65;1.10;;;;;;;3.37;100.00;99325.91;4932816;29;20059;-86
2023/03/06 07:19:46;;;;;;;1.63;1.10;;;;;;;3.35;100.00;99327.69;4933078;28;20055;-86
2023/03/06 07:22:13;;;;;;;2.55;1.10;;;;;;;3.29;100.00;99333.03;4938257;29;20094;-85
2023/03/06 07:24:40;;;;;;;3.55;1.20;;;;;;;3.43;100.00;99346.41;4940306;28;20059;-85
2023/03/06 07:27:07;;;;;;;1.83;1.20;;;;;;;3.25;100.00;99328.88;4921286;29;20434;-85
2023/03/06 07:29:34;;;;;;;2.33;1.30;;;;;;;3.14;100.00;99293.81;4936573;29;20052;-87
2023/03/06 07:32:01;;;;;;;4.35;1.10;;;;;;;3.27;100.00;99299.44;4949921;28;20059;-87
2023/03/06 07:34:28;;;;;;;2.97;1.20;;;;;;;3.31;100.00;99303.66;4939858;29;20412;-86
2023/03/06 07:36:55;;;;;;;6.45;1.20;;;;;;;3.21;100.00;99312.59;4938102;28;20055;-85
2023/03/06 07:39:21;;;;;;;2.42;1.10;;;;;;;3.21;100.00;99312.59;4944528;28;20501;-85
2023/03/06 07:41:48;;;;;;;1.63;1.10;;;;;;;3.28;100.00;99327.03;4972230;28;20051;-85
2023/03/06 07:44:15;;;;;;;2.25;1.20;;;;;;;3.60;100.00;99359.69;4932362;28;20106;-85
2023/03/06 07:46:42;;;;;;;3.70;1.40;;;;;;;3.26;100.00;99294.31;4931785;28;20063;-86
2023/03/06 07:49:08;;;;;;;2.15;1.23;;;;;;;3.32;100.00;99278.63;4931903;28;20090;-85
2023/03/06 07:51:35;;;;;;;2.92;1.20;;;;;;;3.39;100.00;99264.59;4929889;29;20478;-85
2023/03/06 07:54:02;;;;;;;3.15;1.40;;;;;;;3.70;100.00;99292.06;4920985;28;20055;-85
2023/03/06 07:56:28;;;;;;;7.13;1.73;;;;;;;3.84;100.00;99327.88;4931884;28;20123;-86
2023/03/06 07:58:55;;;;;;;4.55;1.60;;;;;;;4.49;100.00;99279.91;4932748;28;20052;-85
2023/03/06 08:01:23;;;;;;;7.57;1.73;;;;;;;4.06;100.00;99255.50;4981222;28;20049;-85
2023/03/06 08:03:50;;;;;;;3.35;1.45;;;;;;;4.47;100.00;99342.16;4943235;28;20448;-86
2023/03/06 08:06:23;;;;;;;6.05;1.95;;;;;;;4.57;100.00;99338.34;4931535;29;20055;-85
2023/03/06 08:08:51;;;;;;;2.20;1.15;;;;;;;3.96;100.00;99323.13;4932687;29;20482;-86
2023/03/06 08:11:20;;;;;;;3.97;1.40;;;;;;;3.85;100.00;99321.81;4930511;28;20070;-86
2023/03/06 08:13:48;;;;;;;5.03;1.27;;;;;;;3.75;100.00;99295.38;4931915;28;20059;-86
2023/03/06 08:16:16;;;;;;;3.58;1.30;;;;;;;4.06;100.00;99336.66;4971106;28;20396;-85
2023/03/06 08:18:43;;;;;;;6.20;1.50;;;;;;;3.89;100.00;99295.75;4933444;29;20087;-86
2023/03/06 08:21:15;;;;;;;7.30;1.70;;;;;;;3.77;100.00;99301.34;4955785;28;20047;-86
2023/03/06 08:23:43;;;;;;;8.10;1.80;;;;;;;3.58;100.00;99314.88;4934106;29;20543;-86
2023/03/06 08:26:12;;;;;;;2.58;1.20;;;;;;;3.47;100.00;99303.16;4932588;29;20087;-87
2023/03/06 08:28:40;;;;;;;3.88;1.20;;;;;;;3.21;100.00;99269.47;4960277;28;20051;-86
2023/03/06 08:31:30;;;;;;;5.15;1.52;;;;;;;4.49;100.00;99352.47;4925729;29;20055;-86
2023/03/06 08:33:59;;;;;;;6.47;1.50;;;;;;;4.90;100.00;99370.91;4933182;29;20759;-86
2023/03/06 08:36:25;;;;;;;6.22;1.40;;;;;;;4.39;100.00;99326.00;4932575;29;20436;-86
2023/03/06 08:38:52;;;;;;;8.93;1.60;;;;;;;3.75;100.00;99283.28;4932345;29;20052;-86
2023/03/06 08:41:20;;;;;;;5.70;1.83;;;;;;;4.15;100.00;99344.09;4921689;29;20458;-86
2023/03/06 08:43:47;;;;;;;6.28;2.20;;;;;;;4.26;100.00;99361.03;4932097;29;20052;-86
2023/03/06 08:46:17;;;;;;;5.93;1.60;;;;;;;4.48;100.00;99367.19;4935842;29;20058;-87
2023/03/06 08:48:46;;;;;;;8.38;2.03;;;;;;;4.04;100.00;99332.41;4944648;28;20074;-87
2023/03/06 08:51:14;;;;;;;7.63;1.58;;;;;;;3.71;100.00;99346.41;4931062;28;20051;-87
2023/03/06 08:53:42;;;;;;;5.30;1.30;;;;;;;3.58;100.00;99327.00;4933100;28;20055;-87
2023/03/06 08:56:18;;;;;;;6.78;1.67;;;;;;;3.95;100.00;99383.63;4949008;28;20559;-87
2023/03/06 08:58:46;;;;;;;6.78;1.65;;;;;;;3.91;100.00;99358.72;4933535;28;20047;-86
2023/03/06 09:01:18;;;;;;;7.20;1.58;;;;;;;4.28;100.00;99365.25;4931433;28;20056;-86
2023/03/06 09:03:46;;;;;;;11.30;2.30;;;;;;;4.38;100.00;99366.63;4931747;28;20048;-86
2023/03/06 09:06:13;;;;;;;6.88;1.58;;;;;;;3.96;100.00;99354.22;4933487;28;20048;-87
2023/03/06 09:08:43;;;;;;;6.50;1.65;;;;;;;4.12;100.00;99367.50;4941663;28;20055;-87
2023/03/06 09:11:12;;;;;;;7.82;1.90;;;;;;;3.84;100.00;99339.06;4930608;28;20121;-86
2023/03/06 09:13:40;;;;;;;9.13;2.00;;;;;;;4.10;100.00;99387.44;4931404;28;20059;-86
2023/03/06 09:16:08;;;;;;;6.72;2.15;;;;;;;3.77;100.00;99342.75;4930502;28;20048;-86
2023/03/06 09:18:35;;;;;;;4.13;1.30;;;;;;;3.47;100.00;99321.28;4931125;29;20094;-86
2023/03/06 09:21:03;;;;;;;3.80;1.35;;;;;;;3.81;100.00;99372.84;4928662;28;20078;-86
2023/03/06 09:23:30;;;;;;;6.28;1.40;;;;;;;3.68;100.00;99387.91;4931593;28;20473;-84
2023/03/06 09:25:58;;;;;;;3.25;1.30;;;;;;;3.34;100.00;99319.06;4930854;29;20043;-85
2023/03/06 09:28:26;;;;;;;4.63;1.40;;;;;;;4.24;100.00;99392.19;4931704;28;20404;-85
2023/03/06 09:30:53;;;;;;;6.32;1.40;;;;;;;3.79;100.00;99372.06;4926412;29;20056;-84
2023/03/06 09:33:20;;;;;;;8.38;1.42;;;;;;;4.11;100.00;99404.69;4932809;28;20432;-84
2023/03/06 09:35:50;;;;;;;8.82;1.70;;;;;;;4.02;100.00;99366.16;4931260;29;20139;-84
2023/03/06 09:38:19;;;;;;;6.38;1.40;;;;;;;3.92;100.00;99411.34;4947242;28;20077;-84
2023/03/06 09:41:01;;;;;;;5.88;1.58;;;;;;;3.85;100.00;99409.84;4937229;28;20088;-86
2023/03/06 09:43:38;;;;;;;7.97;1.52;;;;;;;3.90;100.00;99380.31;4929816;28;20073;-85
2023/03/06 09:46:35;;;;;;;9.02;1.70;;;;;;;4.30;100.00;99399.75;4932831;28;20458;-86
2023/03/06 09:49:10;;;;;;;6.15;1.52;;;;;;;3.88;100.00;99397.66;4951532;28;20133;-86
2023/03/06 09:51:58;;;;;;;6.38;1.80;;;;;;;4.18;100.00;99403.59;4936127;29;20047;-86
2023/03/06 09:55:14;;;;;;;11.73;2.05;;;;;;;4.27;100.00;99396.44;4942951;29;20054;-86
2023/03/06 09:58:02;;;;;;;10.20;2.20;;;;;;;3.94;100.00;99402.63;4935412;28;20047;-87
2023/03/06 10:00:38;;;;;;;9.40;1.90;;;;;;;4.13;100.00;99418.44;4927693;28;20054;-87
2023/03/06 10:03:19;;;;;;;7.78;1.83;;;;;;;4.26;100.00;99424.06;4972714;28;20484;-87
2023/03/06 10:05:51;;;;;;;5.68;1.63;;;;;;;4.10;100.00;99422.88;4932203;28;20051;-87
2023/03/06 10:08:26;;;;;;;10.57;1.70;;;;;;;3.75;100.00;99379.06;4931594;28;20051;-86
2023/03/06 10:11:02;;;;;;;5.88;1.45;;;;;;;3.99;100.00;99423.22;4930423;28;20065;-88
2023/03/06 10:13:32;;;;;;;5.95;2.20;;;;;;;3.70;100.00;99429.28;4929764;29;20135;-88
2023/03/06 10:16:30;;;;;;;8.70;1.70;;;;;;;3.28;100.00;99430.50;4936442;28;20054;-87
2023/03/06 10:19:02;;;;;;;7.03;2.00;;;;;;;2.79;100.00;99354.31;4934572;29;20061;-88
2023/03/06 10:21:42;;;;;;;5.07;1.80;;;;;;;2.92;100.00;99386.69;4932036;28;20055;-87
2023/03/06 10:24:36;;;;;;;10.55;2.72;;;;;;;3.09;100.00;99412.06;4935439;28;20048;-87
2023/03/06 10:27:20;;;;;;;4.35;1.50;;;;;;;3.51;100.00;99441.94;4930682;29;20110;-88
2023/03/06 10:29:56;;;;;;;6.90;1.70;;;;;;;3.70;100.00;99434.47;4948493;28;20106;-87
2023/03/06 10:32:48;;;;;;;6.88;1.83;;;;;;;3.84;100.00;99440.06;4939223;29;20075;-87
2023/03/06 10:35:40;;;;;;;13.00;2.10;;;;;;;3.43;100.00;99372.28;4939399;28;20051;-87
2023/03/06 10:38:30;;;;;;;5.15;1.77;;;;;;;4.16;100.00;99438.19;4937121;29;20109;-87
2023/03/06 10:41:09;;;;;;;15.25;2.00;;;;;;;4.19;100.00;99419.97;4917193;29;20445;-86
2023/03/06 10:43:39;;;;;;;5.53;1.75;;;;;;;4.02;100.00;99423.13;4936566;29;20052;-85
2023/03/06 10:46:08;;;;;;;5.80;1.70;;;;;;;4.17;100.00;99398.47;4938870;29;20044;-86
2023/03/06 10:48:37;;;;;;;3.95;1.30;;;;;;;4.37;100.00;99398.66;4936824;29;20044;-86
2023/03/06 10:51:21;;;;;;;3.72;1.50;;;;;;;4.50;100.00;99417.22;4937238;29;20055;-85
2023/03/06 10:53:56;;;;;;;4.43;1.33;;;;;;;4.21;100.00;99350.81;4936374;29;20059;-86
2023/03/06 10:56:27;;;;;;;8.95;1.63;;;;;;;4.50;100.00;99401.69;4936590;28;20405;-86
2023/03/06 10:59:13;;;;;;;4.35;1.30;;;;;;;4.60;100.00;99401.34;4936182;29;20075;-86
2023/03/06 11:02:22;;;;;;;8.82;1.90;;;;;;;4.92;100.00;99410.59;4941142;28;20080;-85
2023/03/06 11:04:53;;;;;;;7.40;1.58;;;;;;;4.53;100.00;99411.06;4935639;29;20051;-86
2023/03/06 11:07:23;;;;;;;5.05;1.40;;;;;;;4.62;100.00;99420.28;4937800;29;20109;-87
2023/03/06 11:09:57;;;;;;;5.95;1.40;;;;;;;4.89;100.00;99418.50;4943535;29;20051;-86
2023/03/06 11:12:33;;;;;;;3.78;1.42;;;;;;;4.81;100.00;99337.53;4936189;28;20040;-86
2023/03/06 11:15:06;;;;;;;6.15;1.40;;;;;;;5.12;100.00;99402.13;4936693;29;20083;-86
2023/03/06 11:17:36;;;;;;;11.77;2.13;;;;;;;5.17;100.00;99396.75;4936806;28;20044;-86
2023/03/06 11:20:27;;;;;;;9.55;2.10;;;;;;;5.20;100.00;99407.84;4935838;29;20048;-86
2023/03/06 11:23:33;;;;;;;7.03;1.63;;;;;;;4.88;100.00;99393.47;4997964;28;20471;-86
2023/03/06 11:26:03;;;;;;;7.05;1.65;;;;;;;5.48;100.00;99412.84;4940913;28;20052;-86
2023/03/06 11:28:45;;;;;;;6.28;1.65;;;;;;;5.62;100.00;99395.91;4934586;29;20055;-86
2023/03/06 11:31:19;;;;;;;6.38;1.60;;;;;;;4.77;100.00;99348.91;4927527;29;20562;-85
2023/03/06 11:33:53;;;;;;;7.93;1.60;;;;;;;4.91;100.00;99334.53;4935053;28;20077;-86
2023/03/06 11:36:26;;;;;;;5.90;1.50;;;;;;;5.63;100.00;99395.88;4932803;29;20051;-86
2023/03/06 11:38:53;;;;;;;11.50;1.80;;;;;;;6.10;100.00;99392.31;4923621;29;20513;-86
2023/03/06 11:41:48;;;;;;;10.18;1.65;;;;;;;5.85;100.00;99395.03;4923339;29;20482;-86
2023/03/06 11:44:26;;;;;;;5.43;1.35;;;;;;;5.55;100.00;99399.66;4933302;29;20048;-86